createdAt,value
2022-07-26T00:01:32.583Z,20.61
2022-07-26T00:04:05.272Z,20.62
2022-07-26T00:06:34.981Z,20.63
2022-07-26T00:09:05.252Z,20.62
2022-07-26T00:11:36.145Z,20.59
2022-07-26T00:14:08.544Z,20.58
2022-07-26T00:16:39.321Z,20.58
2022-07-26T00:19:11.714Z,20.56
2022-07-26T00:21:42.609Z,20.57
2022-07-26T00:24:12.619Z,20.55
2022-07-26T00:26:42.364Z,20.52
2022-07-26T00:29:12.234Z,20.53
2022-07-26T00:31:42.051Z,20.52
2022-07-26T00:34:14.486Z,20.55
2022-07-26T00:36:44.556Z,20.53
2022-07-26T00:39:14.265Z,20.53
2022-07-26T00:41:44.014Z,20.52
2022-07-26T00:44:14.394Z,20.50
2022-07-26T00:46:45.168Z,20.52
2022-07-26T00:49:17.740Z,20.50
2022-07-26T00:51:47.641Z,20.45
2022-07-26T00:54:20.097Z,20.44
2022-07-26T00:56:54.979Z,20.43
2022-07-26T00:59:25.376Z,20.44
2022-07-26T01:01:56.732Z,20.43
2022-07-26T01:04:29.217Z,20.45
2022-07-26T01:06:59.504Z,20.45
2022-07-26T01:09:29.389Z,20.45
2022-07-26T01:12:01.961Z,20.45
2022-07-26T01:14:31.700Z,20.48
2022-07-26T01:17:01.554Z,20.49
2022-07-26T01:19:34.028Z,20.48
2022-07-26T01:22:09.913Z,20.49
2022-07-26T01:24:42.301Z,20.49
2022-07-26T01:27:12.351Z,20.47
2022-07-26T01:29:42.129Z,20.46
2022-07-26T01:32:12.385Z,20.47
2022-07-26T01:34:42.079Z,20.49
2022-07-26T01:37:14.674Z,20.46
2022-07-26T01:39:45.865Z,20.44
2022-07-26T01:42:15.642Z,20.46
2022-07-26T01:44:45.381Z,20.45
2022-07-26T01:47:15.089Z,20.39
2022-07-26T01:49:44.883Z,20.38
2022-07-26T01:52:17.212Z,20.28
2022-07-26T01:54:46.926Z,20.22
2022-07-26T01:57:16.699Z,20.03
2022-07-26T01:59:46.529Z,20.00
2022-07-26T02:02:16.331Z,19.95
2022-07-26T02:04:58.715Z,19.86
2022-07-26T02:07:32.542Z,19.79
2022-07-26T02:10:03.142Z,19.78
2022-07-26T02:12:33.390Z,19.74
2022-07-26T02:15:03.700Z,19.64
2022-07-26T02:17:33.427Z,19.60
2022-07-26T02:20:03.366Z,19.52
2022-07-26T02:22:35.735Z,19.46
2022-07-26T02:25:05.908Z,19.40
2022-07-26T02:27:35.799Z,19.32
2022-07-26T02:30:05.653Z,19.18
2022-07-26T02:32:35.534Z,19.08
2022-07-26T02:35:05.376Z,18.93
2022-07-26T02:37:43.642Z,18.88
2022-07-26T02:40:19.349Z,18.85
2022-07-26T02:42:49.448Z,18.84
2022-07-26T02:45:19.228Z,18.81
2022-07-26T02:47:50.614Z,18.77
2022-07-26T02:50:21.716Z,18.75
2022-07-26T02:52:55.245Z,18.63
2022-07-26T02:55:27.077Z,18.70
2022-07-26T02:57:57.205Z,18.71
2022-07-26T03:00:29.045Z,18.81
2022-07-26T03:02:59.152Z,18.79
2022-07-26T03:05:29.087Z,18.72
2022-07-26T03:08:01.802Z,18.56
2022-07-26T03:10:31.632Z,18.60
2022-07-26T03:13:01.554Z,18.57
2022-07-26T03:15:31.362Z,18.60
2022-07-26T03:18:01.427Z,18.57
2022-07-26T03:20:31.323Z,18.48
2022-07-26T03:23:03.686Z,18.50
2022-07-26T03:25:33.395Z,18.57
2022-07-26T03:28:08.057Z,18.66
2022-07-26T03:30:38.388Z,18.64
2022-07-26T03:33:08.135Z,18.60
2022-07-26T03:35:37.914Z,18.44
2022-07-26T03:38:10.229Z,18.57
2022-07-26T03:40:40.051Z,18.64
2022-07-26T03:43:09.756Z,18.64
2022-07-26T03:45:40.044Z,18.59
2022-07-26T03:48:10.215Z,18.55
2022-07-26T03:50:43.167Z,18.54
2022-07-26T03:53:15.521Z,18.54
2022-07-26T03:55:57.642Z,18.53
2022-07-26T03:58:27.349Z,18.45
2022-07-26T04:00:57.097Z,18.38
2022-07-26T04:03:26.835Z,18.36
2022-07-26T04:05:57.541Z,18.29
2022-07-26T04:08:30.168Z,18.28
2022-07-26T04:10:59.995Z,18.21
2022-07-26T04:13:29.720Z,18.25
2022-07-26T04:15:59.433Z,18.29
2022-07-26T04:18:29.171Z,18.23
2022-07-26T04:20:58.925Z,18.19
2022-07-26T04:23:31.292Z,18.24
2022-07-26T04:26:01.435Z,18.26
2022-07-26T04:28:31.594Z,18.23
2022-07-26T04:31:02.332Z,18.20
2022-07-26T04:33:33.186Z,18.21
2022-07-26T04:36:03.570Z,18.32
2022-07-26T04:38:35.930Z,18.35
2022-07-26T04:41:05.951Z,18.37
2022-07-26T04:43:35.726Z,18.40
2022-07-26T04:46:05.906Z,18.29
2022-07-26T04:48:35.739Z,18.21
2022-07-26T04:51:05.544Z,18.06
2022-07-26T04:53:37.865Z,17.90
2022-07-26T04:56:08.064Z,17.93
2022-07-26T04:58:37.934Z,17.96
2022-07-26T05:01:10.447Z,18.00
2022-07-26T05:03:40.966Z,17.99
2022-07-26T05:06:10.885Z,18.03
2022-07-26T05:08:43.488Z,18.09
2022-07-26T05:11:13.583Z,18.04
2022-07-26T05:13:43.476Z,18.08
2022-07-26T05:16:13.206Z,18.09
2022-07-26T05:18:49.078Z,18.15
2022-07-26T05:21:19.978Z,18.19
2022-07-26T05:23:52.316Z,18.10
2022-07-26T05:26:22.037Z,18.09
2022-07-26T05:28:51.812Z,18.04
2022-07-26T05:31:21.623Z,18.05
2022-07-26T05:33:51.386Z,18.09
2022-07-26T05:36:21.198Z,18.18
2022-07-26T05:38:53.525Z,18.09
2022-07-26T05:41:23.233Z,18.17
2022-07-26T05:43:52.977Z,18.19
2022-07-26T05:46:22.755Z,18.08
2022-07-26T05:48:52.556Z,18.07
2022-07-26T05:51:22.295Z,18.10
2022-07-26T05:53:54.578Z,18.11
2022-07-26T05:56:24.377Z,18.09
2022-07-26T05:58:54.377Z,18.12
2022-07-26T06:01:24.102Z,18.14
2022-07-26T06:03:54.234Z,18.19
2022-07-26T06:06:23.988Z,18.07
2022-07-26T06:08:56.573Z,18.07
2022-07-26T06:11:26.494Z,18.15
2022-07-26T06:13:56.713Z,18.22
2022-07-26T06:16:26.573Z,18.16
2022-07-26T06:18:56.264Z,18.18
2022-07-26T06:21:26.155Z,18.14
2022-07-26T06:23:58.471Z,18.21
2022-07-26T06:26:28.260Z,18.13
2022-07-26T06:28:57.957Z,18.20
2022-07-26T06:31:27.793Z,18.25
2022-07-26T06:33:57.547Z,18.28
2022-07-26T06:36:30.460Z,18.34
2022-07-26T06:39:03.282Z,18.39
2022-07-26T06:41:33.207Z,18.42
2022-07-26T06:44:02.885Z,18.40
2022-07-26T06:46:32.645Z,18.41
2022-07-26T06:49:02.529Z,18.47
2022-07-26T06:51:32.321Z,18.44
2022-07-26T06:54:06.029Z,18.47
2022-07-26T06:56:36.048Z,18.48
2022-07-26T06:59:09.394Z,18.53
2022-07-26T07:01:51.299Z,18.55
2022-07-26T07:04:29.241Z,18.66
2022-07-26T07:07:05.274Z,18.71
2022-07-26T07:09:39.117Z,18.64
2022-07-26T07:12:10.913Z,18.60
2022-07-26T07:14:41.241Z,18.54
2022-07-26T07:17:15.941Z,18.54
2022-07-26T07:19:48.312Z,18.47
2022-07-26T07:22:18.284Z,18.43
2022-07-26T07:24:50.626Z,18.49
2022-07-26T07:27:20.946Z,18.56
2022-07-26T07:29:50.749Z,18.66
2022-07-26T07:32:20.540Z,18.72
2022-07-26T07:34:50.801Z,18.74
2022-07-26T07:37:20.898Z,18.84
2022-07-26T07:39:53.250Z,18.92
2022-07-26T07:42:23.800Z,18.85
2022-07-26T07:44:53.510Z,19.05
2022-07-26T07:47:23.286Z,19.11
2022-07-26T07:49:53.008Z,19.16
2022-07-26T07:52:22.716Z,19.29
2022-07-26T07:55:11.614Z,19.41
2022-07-26T07:57:44.760Z,19.40
2022-07-26T08:00:19.493Z,19.46
2022-07-26T08:02:57.109Z,19.34
2022-07-26T08:05:26.835Z,19.29
2022-07-26T08:07:56.863Z,19.27
2022-07-26T08:10:29.642Z,19.29
2022-07-26T08:12:59.366Z,19.36
2022-07-26T08:15:29.083Z,19.56
2022-07-26T08:18:00.697Z,19.66
2022-07-26T08:20:31.040Z,19.79
2022-07-26T08:23:00.841Z,19.84
2022-07-26T08:25:33.298Z,19.72
2022-07-26T08:28:03.974Z,19.63
2022-07-26T08:30:33.973Z,19.50
2022-07-26T08:33:04.224Z,19.29
2022-07-26T08:35:34.068Z,19.38
2022-07-26T08:38:03.804Z,19.47
2022-07-26T08:40:36.866Z,19.63
2022-07-26T08:43:07.028Z,19.68
2022-07-26T08:45:37.003Z,19.77
2022-07-26T08:48:17.340Z,19.67
2022-07-26T08:50:48.113Z,19.67
2022-07-26T08:53:18.372Z,19.55
2022-07-26T08:56:06.558Z,19.54
2022-07-26T08:58:40.963Z,19.62
2022-07-26T09:01:13.211Z,19.59
2022-07-26T09:03:44.155Z,19.67
2022-07-26T09:06:16.191Z,19.76
2022-07-26T09:08:47.209Z,19.81
2022-07-26T09:11:34.596Z,19.83
2022-07-26T09:14:06.019Z,19.92
2022-07-26T09:16:40.151Z,20.04
2022-07-26T09:19:22.769Z,20.12
2022-07-26T09:21:55.655Z,20.04
2022-07-26T09:24:36.730Z,19.99
2022-07-26T09:27:11.818Z,20.04
2022-07-26T09:29:49.830Z,20.13
2022-07-26T09:32:21.570Z,20.24
2022-07-26T09:34:57.748Z,20.39
2022-07-26T09:37:38.333Z,20.41
2022-07-26T09:40:10.378Z,20.47
2022-07-26T09:42:57.115Z,20.44
2022-07-26T09:45:27.892Z,20.46
2022-07-26T09:47:57.909Z,20.47
2022-07-26T09:50:31.894Z,20.50
2022-07-26T09:53:09.681Z,20.58
2022-07-26T09:55:56.521Z,20.52
2022-07-26T09:58:30.846Z,20.46
2022-07-26T10:01:02.446Z,20.39
2022-07-26T10:03:33.479Z,20.44
2022-07-26T10:06:04.122Z,20.41
2022-07-26T10:08:34.416Z,20.52
2022-07-26T10:11:08.162Z,20.61
2022-07-26T10:13:40.921Z,20.69
2022-07-26T10:16:34.741Z,20.89
2022-07-26T10:19:05.088Z,21.06
2022-07-26T10:21:35.393Z,21.18
2022-07-26T10:24:08.688Z,21.14
2022-07-26T10:26:45.733Z,21.16
2022-07-26T10:29:29.573Z,21.29
2022-07-26T10:32:23.153Z,21.35
2022-07-26T10:34:53.040Z,21.34
2022-07-26T10:37:30.592Z,21.37
2022-07-26T10:40:22.903Z,21.41
2022-07-26T10:42:52.613Z,21.36
2022-07-26T10:45:26.151Z,21.37
2022-07-26T10:48:15.137Z,21.41
2022-07-26T10:50:47.066Z,21.34
2022-07-26T10:53:21.491Z,21.24
2022-07-26T10:55:54.010Z,21.26
2022-07-26T10:58:24.634Z,21.38
2022-07-26T11:01:02.278Z,21.34
2022-07-26T11:03:41.488Z,21.34
2022-07-26T11:06:15.877Z,21.46
2022-07-26T11:08:48.338Z,21.58
2022-07-26T11:11:31.509Z,21.64
2022-07-26T11:14:09.488Z,21.70
2022-07-26T11:16:43.916Z,21.71
2022-07-26T11:19:19.185Z,21.73
2022-07-26T11:21:50.065Z,21.80
2022-07-26T11:24:19.871Z,21.67
2022-07-26T11:26:50.518Z,21.70
2022-07-26T11:29:38.628Z,21.63
2022-07-26T11:32:20.296Z,21.82
2022-07-26T11:34:50.611Z,21.91
2022-07-26T11:37:20.328Z,21.93
2022-07-26T11:39:50.120Z,21.97
2022-07-26T11:42:22.551Z,22.02
2022-07-26T11:44:54.155Z,22.01
2022-07-26T11:47:27.154Z,22.07
2022-07-26T11:52:46.986Z,21.97
2022-07-26T11:55:16.744Z,22.00
2022-07-26T11:57:46.466Z,21.75
2022-07-26T12:00:18.333Z,21.74
2022-07-26T12:02:55.759Z,21.64
2022-07-26T12:05:26.854Z,21.59
2022-07-26T12:08:03.104Z,21.68
2022-07-26T12:10:33.547Z,21.69
2022-07-26T12:13:11.070Z,21.50
2022-07-26T12:15:48.238Z,21.46
2022-07-26T12:18:31.372Z,21.32
2022-07-26T12:21:05.480Z,21.34
2022-07-26T12:23:48.394Z,21.46
2022-07-26T12:26:23.289Z,21.57
2022-07-26T12:28:53.218Z,21.43
2022-07-26T12:31:30.386Z,21.50
2022-07-26T12:34:03.621Z,21.52
2022-07-26T12:36:36.902Z,21.37
2022-07-26T12:39:07.470Z,21.32
2022-07-26T12:41:38.614Z,21.30
2022-07-26T12:44:11.967Z,21.35
2022-07-26T12:46:45.029Z,21.39
2022-07-26T12:49:17.833Z,21.49
2022-07-26T12:51:47.629Z,21.49
2022-07-26T12:54:17.449Z,21.56
2022-07-26T12:56:47.186Z,21.52
2022-07-26T12:59:18.704Z,21.52
2022-07-26T13:01:48.572Z,21.58
2022-07-26T13:04:21.033Z,21.76
2022-07-26T13:06:50.828Z,21.81
2022-07-26T13:09:20.551Z,21.67
2022-07-26T13:11:50.334Z,21.53
2022-07-26T13:14:20.093Z,21.47
2022-07-26T13:16:49.860Z,21.57
2022-07-26T13:19:22.552Z,21.58
2022-07-26T13:21:53.154Z,21.47
2022-07-26T13:24:23.057Z,21.50
2022-07-26T13:26:53.370Z,21.53
2022-07-26T13:29:23.301Z,21.64
2022-07-26T13:31:53.944Z,21.76
2022-07-26T13:34:29.282Z,21.58
2022-07-26T13:37:08.310Z,21.71
2022-07-26T13:39:38.402Z,21.65
2022-07-26T13:42:08.725Z,21.51
2022-07-26T13:44:38.419Z,21.51
2022-07-26T13:47:08.343Z,21.58
2022-07-26T13:49:40.706Z,21.70
2022-07-26T13:52:15.552Z,21.88
2022-07-26T13:54:46.469Z,21.97
2022-07-26T13:57:16.345Z,22.02
2022-07-26T13:59:46.049Z,21.93
2022-07-26T14:02:16.007Z,21.86
2022-07-26T14:04:48.676Z,21.77
2022-07-26T14:07:18.414Z,21.79
2022-07-26T14:09:48.151Z,21.67
2022-07-26T14:12:17.985Z,21.64
2022-07-26T14:14:47.705Z,21.64
2022-07-26T14:17:17.468Z,21.57
2022-07-26T14:19:51.007Z,21.42
2022-07-26T14:22:20.758Z,21.28
2022-07-26T14:24:50.478Z,21.09
2022-07-26T14:27:20.337Z,21.12
2022-07-26T14:29:50.189Z,21.06
2022-07-26T14:32:22.172Z,21.14
2022-07-26T14:34:54.904Z,21.22
2022-07-26T14:37:42.220Z,21.22
2022-07-26T14:40:16.469Z,21.21
2022-07-26T14:42:58.556Z,21.23
2022-07-26T14:45:28.932Z,21.31
2022-07-26T14:47:59.556Z,21.33
2022-07-26T14:50:46.958Z,21.24
2022-07-26T14:53:22.417Z,21.31
2022-07-26T14:55:52.155Z,21.36
2022-07-26T14:58:22.338Z,21.37
2022-07-26T15:00:53.836Z,21.25
2022-07-26T15:03:23.693Z,21.11
2022-07-26T15:05:56.137Z,21.10
2022-07-26T15:08:26.011Z,20.95
2022-07-26T15:11:38.033Z,20.81
2022-07-26T15:14:08.192Z,20.81
2022-07-26T15:16:38.358Z,20.69
2022-07-26T15:19:08.395Z,20.76
2022-07-26T15:21:40.751Z,20.71
2022-07-26T15:24:14.327Z,20.69
2022-07-26T15:26:45.365Z,20.60
2022-07-26T15:29:16.826Z,20.53
2022-07-26T15:31:46.713Z,20.53
2022-07-26T15:34:17.724Z,20.48
2022-07-26T15:36:50.166Z,20.37
2022-07-26T15:39:19.973Z,20.39
2022-07-26T15:41:50.845Z,20.39
2022-07-26T15:44:24.276Z,20.47
2022-07-26T15:46:55.844Z,20.48
2022-07-26T15:49:26.258Z,20.48
2022-07-26T15:51:58.658Z,20.50
2022-07-26T15:54:28.760Z,20.52
2022-07-26T15:56:58.513Z,20.58
2022-07-26T16:03:01.400Z,20.48
2022-07-26T16:05:31.222Z,20.53
2022-07-26T16:08:03.513Z,20.57
2022-07-26T16:10:33.306Z,20.56
2022-07-26T16:13:03.118Z,20.55
2022-07-26T16:15:32.881Z,20.55
2022-07-26T16:18:06.350Z,20.53
2022-07-26T16:20:37.007Z,20.58
2022-07-26T16:23:09.413Z,20.59
2022-07-26T16:25:39.197Z,20.53
2022-07-26T16:28:10.100Z,20.50
2022-07-26T16:30:39.953Z,20.51
2022-07-26T16:33:09.845Z,20.55
2022-07-26T16:35:39.672Z,20.43
2022-07-26T16:38:12.069Z,20.39
2022-07-26T16:40:41.906Z,20.36
2022-07-26T16:43:12.015Z,20.34
2022-07-26T16:45:42.173Z,20.17
2022-07-26T16:48:12.863Z,20.01
2022-07-26T16:50:43.455Z,20.04
2022-07-26T16:53:15.845Z,20.03
2022-07-26T16:55:47.232Z,20.01
2022-07-26T16:58:17.024Z,19.94
2022-07-26T17:00:47.123Z,19.97
2022-07-26T17:03:17.616Z,19.86
2022-07-26T17:05:47.504Z,19.76
2022-07-26T17:08:21.041Z,19.56
2022-07-26T17:10:50.830Z,19.56
2022-07-26T17:13:20.628Z,19.28
2022-07-26T17:15:50.610Z,19.27
2022-07-26T17:18:20.586Z,19.29
2022-07-26T17:20:50.371Z,19.33
2022-07-26T17:23:22.764Z,19.31
2022-07-26T17:25:52.543Z,19.33
2022-07-26T17:28:22.338Z,19.38
2022-07-26T17:30:52.126Z,19.38
2022-07-26T17:33:22.045Z,19.29
2022-07-26T17:35:51.845Z,19.29
2022-07-26T17:38:24.275Z,19.33
2022-07-26T17:40:56.664Z,19.28
2022-07-26T17:43:36.407Z,19.30
2022-07-26T17:46:07.020Z,19.29
2022-07-26T17:48:36.950Z,19.33
2022-07-26T17:51:06.997Z,19.24
2022-07-26T17:53:39.410Z,19.18
2022-07-26T17:56:09.262Z,19.22
2022-07-26T17:58:39.027Z,19.27
2022-07-26T18:01:09.401Z,19.28
2022-07-26T18:03:39.195Z,19.18
2022-07-26T18:06:09.413Z,19.03
2022-07-26T18:08:41.884Z,19.06
2022-07-26T18:11:12.769Z,19.08
2022-07-26T18:13:42.544Z,19.02
2022-07-26T18:16:13.077Z,19.00
2022-07-26T18:18:43.544Z,18.91
2022-07-26T18:21:13.597Z,18.96
2022-07-26T18:24:06.671Z,19.04
2022-07-26T18:26:35.844Z,18.95
2022-07-26T18:29:05.833Z,18.94
2022-07-26T18:31:35.957Z,18.93
2022-07-26T18:34:06.785Z,18.96
2022-07-26T18:36:36.860Z,18.95
2022-07-26T18:39:09.626Z,18.90
2022-07-26T18:41:39.668Z,18.87
2022-07-26T18:44:09.503Z,18.87
2022-07-26T18:46:42.552Z,18.81
2022-07-26T18:52:31.904Z,18.72
2022-07-26T18:55:08.100Z,18.72
2022-07-26T18:57:38.267Z,18.77
2022-07-26T19:00:09.551Z,18.83
2022-07-26T19:02:39.268Z,18.76
2022-07-26T19:05:09.725Z,18.75
2022-07-26T19:07:40.273Z,18.75
2022-07-26T19:10:13.622Z,18.77
2022-07-26T19:12:43.936Z,18.73
2022-07-26T19:15:14.677Z,18.69
2022-07-26T19:17:45.034Z,18.63
2022-07-26T19:20:15.592Z,18.64
2022-07-26T19:22:47.416Z,18.56
2022-07-26T19:25:20.769Z,18.62
2022-07-26T19:27:50.464Z,18.64
2022-07-26T19:30:20.295Z,18.64
2022-07-26T19:32:50.037Z,18.64
2022-07-26T19:35:22.641Z,18.64
2022-07-26T19:37:52.418Z,18.59
2022-07-26T19:40:24.827Z,18.56
2022-07-26T19:42:54.607Z,18.54
2022-07-26T19:45:24.617Z,18.51
2022-07-26T19:47:54.371Z,18.55
2022-07-26T19:50:24.473Z,18.64
2022-07-26T19:52:54.194Z,18.68
2022-07-26T19:55:26.569Z,18.81
2022-07-26T19:57:56.305Z,18.80
2022-07-26T20:00:26.980Z,18.71
2022-07-26T20:02:56.695Z,18.61
2022-07-26T20:05:26.625Z,18.62
2022-07-26T20:07:56.400Z,18.55
2022-07-26T20:10:31.974Z,18.43
2022-07-26T20:13:02.293Z,18.47
2022-07-26T20:15:32.071Z,18.41
2022-07-26T20:18:01.814Z,18.40
2022-07-26T20:20:31.690Z,18.42
2022-07-26T20:23:02.343Z,18.44
2022-07-26T20:25:34.738Z,18.45
2022-07-26T20:28:04.459Z,18.47
2022-07-26T20:30:34.396Z,18.47
2022-07-26T20:33:04.131Z,18.40
2022-07-26T20:35:34.234Z,18.38
2022-07-26T20:38:04.036Z,18.32
2022-07-26T20:40:36.434Z,18.29
2022-07-26T20:43:07.704Z,18.28
2022-07-26T20:45:37.472Z,18.28
2022-07-26T20:48:08.037Z,18.26
2022-07-26T20:50:38.489Z,18.27
2022-07-26T20:53:08.207Z,18.26
2022-07-26T20:55:40.565Z,18.20
2022-07-26T20:58:10.267Z,18.18
2022-07-26T21:00:40.002Z,18.17
2022-07-26T21:03:10.015Z,18.20
2022-07-26T21:05:39.727Z,18.20
2022-07-26T21:08:09.509Z,18.15
2022-07-26T21:10:42.101Z,18.12
2022-07-26T21:13:12.402Z,18.13
2022-07-26T21:15:42.536Z,18.12
2022-07-26T21:18:12.434Z,18.15
2022-07-26T21:20:43.088Z,18.14
2022-07-26T21:23:17.762Z,18.16
2022-07-26T21:25:57.932Z,18.16
2022-07-26T21:28:29.295Z,18.01
2022-07-26T21:30:59.029Z,18.01
2022-07-26T21:33:28.724Z,17.95
2022-07-26T21:35:58.441Z,17.98
2022-07-26T21:38:29.909Z,18.00
2022-07-26T21:41:02.274Z,17.87
2022-07-26T21:43:32.237Z,17.89
2022-07-26T21:46:02.083Z,17.91
2022-07-26T21:48:32.449Z,17.88
2022-07-26T21:51:02.241Z,17.87
2022-07-26T21:53:32.004Z,17.86
2022-07-26T21:56:05.749Z,17.86
2022-07-26T21:58:36.849Z,17.81
2022-07-26T22:01:07.572Z,17.80
2022-07-26T22:03:39.216Z,17.70
2022-07-26T22:06:10.341Z,17.63
2022-07-26T22:08:40.606Z,17.68
2022-07-26T22:11:20.018Z,17.62
2022-07-26T22:13:49.833Z,17.66
2022-07-26T22:16:19.648Z,17.50
2022-07-26T22:18:49.458Z,17.52
2022-07-26T22:21:19.198Z,17.47
2022-07-26T22:23:49.466Z,17.44
2022-07-26T22:26:26.281Z,17.49
2022-07-26T22:28:56.060Z,17.44
2022-07-26T22:31:26.054Z,17.43
2022-07-26T22:33:55.869Z,17.39
2022-07-26T22:36:25.616Z,17.41
2022-07-26T22:38:55.468Z,17.29
2022-07-26T22:41:31.695Z,17.19
2022-07-26T22:44:02.396Z,17.25
2022-07-26T22:46:32.138Z,17.33
2022-07-26T22:49:01.932Z,17.38
2022-07-26T22:51:31.824Z,17.45
2022-07-26T22:54:01.580Z,17.43
2022-07-26T22:56:34.054Z,17.48
2022-07-26T22:59:03.754Z,17.53
2022-07-26T23:01:33.551Z,17.59
2022-07-26T23:04:03.468Z,17.62
2022-07-26T23:06:35.973Z,17.66
2022-07-26T23:09:05.747Z,17.70
2022-07-26T23:11:38.083Z,17.72
2022-07-26T23:14:07.823Z,17.74
2022-07-26T23:16:37.625Z,17.77
2022-07-26T23:19:07.831Z,17.76
2022-07-26T23:21:37.691Z,17.73
2022-07-26T23:24:07.791Z,17.74
2022-07-26T23:26:40.198Z,17.77
2022-07-26T23:29:10.535Z,17.78
2022-07-26T23:31:42.310Z,17.77
2022-07-26T23:34:12.135Z,17.78
2022-07-26T23:36:41.875Z,17.81
2022-07-26T23:39:11.930Z,17.82
2022-07-26T23:41:44.484Z,17.78
2022-07-26T23:44:14.219Z,17.74
2022-07-26T23:46:44.048Z,17.71
2022-07-26T23:49:14.401Z,17.65
2022-07-26T23:51:44.393Z,17.59
2022-07-26T23:54:14.119Z,17.54
2022-07-26T23:56:47.642Z,17.45
2022-07-26T23:59:17.518Z,17.39
